Time;durP1;ratioP1;P1;durP2;ratioP2;P2;SDS_P1;SDS_P2;PMS_P1;PMS_P2;Temp;Humidity;BMP_temperature;BMP_pressure;BME280_temperature;BME280_humidity;BME280_pressure;Samples;Min_cycle;Max_cycle;Signal;HPM_P1;HPM_P2
2023/01/20 00:01:32;;;;;;;18.20;4.30;;;;;;;;;;4947691;28;20046;-65
2023/01/20 00:03:59;;;;;;;16.63;3.75;;;;;;;;;;4954742;28;20068;-65
2023/01/20 00:06:26;;;;;;;;;;;;;;;;;;4948863;28;20575;-65
2023/01/20 00:08:53;;;;;;;20.20;4.50;;;;;;;;;;4938978;28;19957;-65
2023/01/20 00:11:19;;;;;;;20.75;4.28;;;;;;;;;;4949395;28;20086;-65
2023/01/20 00:13:45;;;;;;;;;;;;;;;;;;4950507;28;20136;-65
2023/01/20 00:16:12;;;;;;;21.35;4.90;;;;;;;;;;4950906;28;20489;-65
2023/01/20 00:18:39;;;;;;;25.77;6.90;;;;;;;;;;4951233;28;20038;-65
2023/01/20 00:21:05;;;;;;;21.75;5.95;;;;;;;;;;4951156;28;20463;-65
2023/01/20 00:23:32;;;;;;;19.90;4.85;;;;;;;;;;4946417;28;20038;-65
2023/01/20 00:25:58;;;;;;;;;;;;;;;;;;4953881;28;20876;-66
2023/01/20 00:28:24;;;;;;;21.25;5.07;;;;;;;;;;4967457;28;19952;-65
2023/01/20 00:30:50;;;;;;;19.52;5.03;;;;;;;;;;5013919;28;20063;-66
2023/01/20 00:33:17;;;;;;;19.13;4.18;;;;;;;;;;5010007;28;20033;-66
2023/01/20 00:35:43;;;;;;;21.70;3.92;;;;;;;;;;5012669;28;20041;-65
2023/01/20 00:38:09;;;;;;;18.52;4.30;;;;;;;;;;4996948;28;20067;-65
2023/01/20 00:40:35;;;;;;;18.25;4.03;;;;;;;;;;5007757;28;20508;-67
2023/01/20 00:43:01;;;;;;;21.40;4.72;;;;;;;;;;5013046;28;20029;-65
2023/01/20 00:45:27;;;;;;;19.42;4.13;;;;;;;;;;5008434;28;20033;-65
2023/01/20 00:47:53;;;;;;;;;;;;;;;;;;5013036;28;20736;-65
2023/01/20 00:50:20;;;;;;;20.67;3.78;;;;;;;;;;5008759;28;19920;-65
2023/01/20 00:52:46;;;;;;;20.02;4.25;;;;;;;;;;4999509;28;20028;-65
2023/01/20 00:55:12;;;;;;;19.70;4.60;;;;;;;;;;5016774;28;20021;-66
2023/01/20 00:57:38;;;;;;;23.65;4.75;;;;;;;;;;5011518;28;20853;-65
2023/01/20 01:00:04;;;;;;;25.70;4.63;;;;;;;;;;5012214;28;20450;-66
2023/01/20 01:02:30;;;;;;;17.90;4.93;;;;;;;;;;5009045;28;20038;-66
2023/01/20 01:04:57;;;;;;;18.65;4.63;;;;;;;;;;5013122;28;20057;-65
2023/01/20 01:07:23;;;;;;;20.65;4.35;;;;;;;;;;5010087;28;20120;-65
2023/01/20 01:09:49;;;;;;;24.50;5.45;;;;;;;;;;5016346;28;20049;-67
2023/01/20 01:12:15;;;;;;;17.60;4.55;;;;;;;;;;4993990;28;20724;-67
2023/01/20 01:14:41;;;;;;;22.63;4.85;;;;;;;;;;4994714;28;20555;-67
2023/01/20 01:17:07;;;;;;;23.65;4.63;;;;;;;;;;4992091;28;20661;-67
2023/01/20 01:19:33;;;;;;;23.15;4.70;;;;;;;;;;5010445;28;20334;-67
2023/01/20 01:22:00;;;;;;;21.77;4.43;;;;;;;;;;5012053;28;20064;-67
2023/01/20 01:24:26;;;;;;;23.05;4.70;;;;;;;;;;5008050;28;20448;-66
2023/01/20 01:26:53;;;;;;;24.48;5.28;;;;;;;;;;5013166;28;20802;-66
2023/01/20 01:29:19;;;;;;;19.98;5.55;;;;;;;;;;5010127;28;20435;-66
2023/01/20 01:31:45;;;;;;;22.50;5.85;;;;;;;;;;5012005;28;20166;-66
2023/01/20 01:34:11;;;;;;;22.63;5.22;;;;;;;;;;5016504;28;20136;-66
2023/01/20 01:36:37;;;;;;;20.15;5.20;;;;;;;;;;4991290;28;20113;-66
2023/01/20 01:39:04;;;;;;;23.05;4.70;;;;;;;;;;5015254;28;20377;-66
2023/01/20 01:41:30;;;;;;;17.08;4.65;;;;;;;;;;5006668;28;20040;-67
2023/01/20 01:44:07;;;;;;;16.58;4.28;;;;;;;;;;5015346;28;20076;-66
2023/01/20 01:46:33;;;;;;;16.73;4.65;;;;;;;;;;5007876;28;20371;-66
2023/01/20 01:49:01;;;;;;;13.00;4.05;;;;;;;;;;5008303;28;20033;-66
2023/01/20 01:51:33;;;;;;;14.50;4.32;;;;;;;;;;5010530;28;20636;-66
2023/01/20 01:54:02;;;;;;;15.82;4.00;;;;;;;;;;4991324;28;20037;-66
2023/01/20 01:56:29;;;;;;;16.23;3.08;;;;;;;;;;5012102;28;20029;-67
2023/01/20 01:58:56;;;;;;;13.85;3.00;;;;;;;;;;5013811;28;20048;-66
2023/01/20 02:01:23;;;;;;;16.52;3.47;;;;;;;;;;5008340;28;20528;-66
2023/01/20 02:03:55;;;;;;;17.55;3.28;;;;;;;;;;5013560;28;20592;-66
2023/01/20 02:06:22;;;;;;;14.27;3.05;;;;;;;;;;5005453;28;20217;-66
2023/01/20 02:08:48;;;;;;;17.27;2.92;;;;;;;;;;4997519;28;20040;-68
2023/01/20 02:11:14;;;;;;;17.52;3.88;;;;;;;;;;5009245;28;20704;-67
2023/01/20 02:13:41;;;;;;;15.57;3.30;;;;;;;;;;4996949;28;20028;-66
2023/01/20 02:16:17;;;;;;;13.15;3.28;;;;;;;;;;5012319;28;20029;-66
2023/01/20 02:18:43;;;;;;;16.52;3.25;;;;;;;;;;5013215;28;20399;-66
2023/01/20 02:21:22;;;;;;;14.45;2.95;;;;;;;;;;5011916;28;20021;-66
2023/01/20 02:23:54;;;;;;;12.68;3.03;;;;;;;;;;5015043;28;20201;-67
2023/01/20 02:26:26;;;;;;;15.43;3.00;;;;;;;;;;5005831;28;20028;-66
2023/01/20 02:29:11;;;;;;;15.07;3.35;;;;;;;;;;4995154;28;20071;-66
2023/01/20 02:31:50;;;;;;;14.55;3.35;;;;;;;;;;4993800;28;20805;-67
2023/01/20 02:34:20;;;;;;;16.00;3.20;;;;;;;;;;5009619;28;20211;-67
2023/01/20 02:36:51;;;;;;;12.00;2.53;;;;;;;;;;5009924;28;20029;-66
2023/01/20 02:39:23;;;;;;;15.52;2.90;;;;;;;;;;5010279;28;20138;-67
2023/01/20 02:41:56;;;;;;;17.35;2.95;;;;;;;;;;4996516;28;20554;-67
2023/01/20 02:44:25;;;;;;;13.57;2.83;;;;;;;;;;4991296;28;20037;-66
2023/01/20 02:46:51;;;;;;;15.10;3.08;;;;;;;;;;4994633;28;20031;-67
2023/01/20 02:49:21;;;;;;;14.55;3.22;;;;;;;;;;5014588;28;20022;-67
2023/01/20 02:51:53;;;;;;;14.55;3.20;;;;;;;;;;5009363;28;20053;-67
2023/01/20 02:54:21;;;;;;;14.73;3.35;;;;;;;;;;5008665;28;20032;-66
2023/01/20 02:56:48;;;;;;;15.95;2.80;;;;;;;;;;5011257;28;20376;-66
2023/01/20 02:59:16;;;;;;;13.13;2.95;;;;;;;;;;4991305;28;20434;-66
2023/01/20 03:01:49;;;;;;;16.20;3.50;;;;;;;;;;5011587;28;20021;-67
2023/01/20 03:04:18;;;;;;;19.15;2.80;;;;;;;;;;5010017;28;20545;-66
2023/01/20 03:06:48;;;;;;;21.50;3.22;;;;;;;;;;5013986;28;20456;-67
2023/01/20 03:09:16;;;;;;;18.85;3.15;;;;;;;;;;4993609;28;20474;-66
2023/01/20 03:11:45;;;;;;;19.10;4.18;;;;;;;;;;5013032;28;20039;-67
2023/01/20 03:14:12;;;;;;;15.55;3.63;;;;;;;;;;5012751;28;20039;-67
2023/01/20 03:16:39;;;;;;;13.73;2.97;;;;;;;;;;5015081;28;20837;-67
2023/01/20 03:19:06;;;;;;;15.95;3.72;;;;;;;;;;5006680;28;20486;-67
2023/01/20 03:21:35;;;;;;;19.52;3.38;;;;;;;;;;4987534;28;20494;-67
2023/01/20 03:24:02;;;;;;;17.52;3.92;;;;;;;;;;5012693;28;20033;-67
2023/01/20 03:26:29;;;;;;;19.35;3.97;;;;;;;;;;5008708;28;20461;-67
2023/01/20 03:28:56;;;;;;;19.05;3.65;;;;;;;;;;5009517;28;21049;-67
2023/01/20 03:31:28;;;;;;;18.30;3.83;;;;;;;;;;4992432;28;20058;-66
2023/01/20 03:33:55;;;;;;;17.58;3.55;;;;;;;;;;5010466;28;20035;-67
2023/01/20 03:36:23;;;;;;;19.70;3.88;;;;;;;;;;5003865;28;20051;-66
2023/01/20 03:38:50;;;;;;;25.17;4.15;;;;;;;;;;5006357;28;20033;-66
2023/01/20 03:41:29;;;;;;;21.08;4.30;;;;;;;;;;4986805;28;20055;-66
2023/01/20 03:44:14;;;;;;;22.00;3.75;;;;;;;;;;5010825;28;20558;-66
2023/01/20 03:46:52;;;;;;;19.85;3.53;;;;;;;;;;5013434;28;20581;-66
2023/01/20 03:49:18;;;;;;;12.90;2.38;;;;;;;;;;5009396;28;20111;-65
2023/01/20 03:51:44;;;;;;;16.33;3.10;;;;;;;;;;4995937;28;20217;-67
2023/01/20 03:54:12;;;;;;;13.02;2.38;;;;;;;;;;5012930;28;20132;-66
2023/01/20 03:56:45;;;;;;;14.65;2.25;;;;;;;;;;4996105;28;20049;-66
2023/01/20 03:59:13;;;;;;;15.85;2.67;;;;;;;;;;5006911;28;20021;-66
2023/01/20 04:01:41;;;;;;;15.48;2.67;;;;;;;;;;5012974;28;20052;-66
2023/01/20 04:04:10;;;;;;;13.80;2.80;;;;;;;;;;5011709;28;20043;-67
2023/01/20 04:06:38;;;;;;;16.70;3.00;;;;;;;;;;4986763;28;20601;-66
2023/01/20 04:09:09;;;;;;;11.82;2.17;;;;;;;;;;4996363;28;20021;-66
2023/01/20 04:11:36;;;;;;;11.38;2.20;;;;;;;;;;5011077;28;21212;-66
2023/01/20 04:14:02;;;;;;;14.15;2.58;;;;;;;;;;5009290;28;20506;-66
2023/01/20 04:16:28;;;;;;;11.32;2.03;;;;;;;;;;5004853;28;21008;-66
2023/01/20 04:18:54;;;;;;;12.15;2.15;;;;;;;;;;5009242;28;20052;-66
2023/01/20 04:21:24;;;;;;;15.82;2.22;;;;;;;;;;4986202;28;20103;-66
2023/01/20 04:24:13;;;;;;;10.18;1.88;;;;;;;;;;5007632;28;20380;-66
2023/01/20 04:26:39;;;;;;;10.18;1.73;;;;;;;;;;4985480;28;20396;-66
2023/01/20 04:29:07;;;;;;;12.45;2.17;;;;;;;;;;5007458;28;20025;-66
2023/01/20 04:31:36;;;;;;;12.23;1.95;;;;;;;;;;5006448;28;21204;-66
2023/01/20 04:34:03;;;;;;;9.82;1.50;;;;;;;;;;5013332;28;20369;-66
2023/01/20 04:36:29;;;;;;;7.85;1.40;;;;;;;;;;5012897;28;20045;-66
2023/01/20 04:38:56;;;;;;;11.55;1.52;;;;;;;;;;5015665;28;20426;-66
2023/01/20 04:41:22;;;;;;;9.05;1.52;;;;;;;;;;5008269;28;20062;-66
2023/01/20 04:43:48;;;;;;;9.98;1.50;;;;;;;;;;5010895;28;20026;-66
2023/01/20 04:46:15;;;;;;;10.02;1.77;;;;;;;;;;4991077;28;20041;-66
2023/01/20 04:48:41;;;;;;;9.85;1.85;;;;;;;;;;5013295;28;20547;-67
2023/01/20 04:51:07;;;;;;;;;;;;;;;;;;5014200;28;20601;-66
2023/01/20 04:53:34;;;;;;;9.35;1.70;;;;;;;;;;4992757;28;19920;-66
2023/01/20 04:56:00;;;;;;;10.38;2.20;;;;;;;;;;5015650;28;20029;-66
2023/01/20 04:58:26;;;;;;;10.98;2.00;;;;;;;;;;5013901;28;20456;-66
2023/01/20 05:00:52;;;;;;;9.93;2.05;;;;;;;;;;5013613;28;20570;-66
2023/01/20 05:03:19;;;;;;;12.10;1.98;;;;;;;;;;5009227;28;20043;-66
2023/01/20 05:05:52;;;;;;;13.57;2.35;;;;;;;;;;4997699;28;20430;-66
2023/01/20 05:08:19;;;;;;;15.35;2.35;;;;;;;;;;5005274;28;20038;-66
2023/01/20 05:10:45;;;;;;;11.50;1.88;;;;;;;;;;5014440;28;20032;-66
2023/01/20 05:13:11;;;;;;;12.70;2.40;;;;;;;;;;5015914;28;20033;-66
2023/01/20 05:15:38;;;;;;;9.25;1.83;;;;;;;;;;5012572;28;20749;-66
2023/01/20 05:18:04;;;;;;;11.77;2.20;;;;;;;;;;5015368;28;20079;-66
2023/01/20 05:20:31;;;;;;;10.55;2.25;;;;;;;;;;5011237;28;20115;-66
2023/01/20 05:22:57;;;;;;;11.82;2.15;;;;;;;;;;5015912;28;20094;-66
2023/01/20 05:25:23;;;;;;;10.48;1.88;;;;;;;;;;5013466;28;20095;-66
2023/01/20 05:27:49;;;;;;;12.07;2.42;;;;;;;;;;5014369;28;20410;-66
2023/01/20 05:30:15;;;;;;;10.23;1.98;;;;;;;;;;5011378;28;20029;-66
2023/01/20 05:32:42;;;;;;;10.60;2.08;;;;;;;;;;4997033;28;20480;-66
2023/01/20 05:35:08;;;;;;;14.70;2.40;;;;;;;;;;5014403;28;20129;-66
2023/01/20 05:37:34;;;;;;;;;;;;;;;;;;5011013;28;20222;-66
2023/01/20 05:40:00;;;;;;;15.82;2.70;;;;;;;;;;5012148;28;19917;-66
2023/01/20 05:42:26;;;;;;;16.00;2.35;;;;;;;;;;5010170;28;20057;-66
2023/01/20 05:44:53;;;;;;;19.50;3.08;;;;;;;;;;5011733;28;20037;-66
2023/01/20 05:47:19;;;;;;;22.67;3.22;;;;;;;;;;5007259;28;20365;-66
2023/01/20 05:49:45;;;;;;;14.25;2.60;;;;;;;;;;5017343;28;20120;-66
2023/01/20 05:52:11;;;;;;;25.27;3.30;;;;;;;;;;5012244;28;20501;-66
2023/01/20 05:54:37;;;;;;;16.60;2.45;;;;;;;;;;4988666;28;20292;-66
2023/01/20 05:57:04;;;;;;;11.70;2.10;;;;;;;;;;5011820;28;20037;-66
2023/01/20 05:59:30;;;;;;;9.82;1.90;;;;;;;;;;5008516;28;20364;-66
2023/01/20 06:01:56;;;;;;;11.38;2.10;;;;;;;;;;5013575;28;20025;-66
2023/01/20 06:04:23;;;;;;;10.57;2.00;;;;;;;;;;5008166;28;20063;-66
2023/01/20 06:06:49;;;;;;;13.18;2.33;;;;;;;;;;4997970;28;20417;-66
2023/01/20 06:09:15;;;;;;;11.90;2.13;;;;;;;;;;5010379;28;20036;-65
2023/01/20 06:11:41;;;;;;;10.27;1.90;;;;;;;;;;5013587;28;20435;-66
2023/01/20 06:14:07;;;;;;;12.65;2.40;;;;;;;;;;5014244;28;20029;-66
2023/01/20 06:16:33;;;;;;;12.20;2.40;;;;;;;;;;5005194;28;20087;-66
2023/01/20 06:19:00;;;;;;;13.25;2.25;;;;;;;;;;5012501;28;20105;-66
2023/01/20 06:21:26;;;;;;;12.77;2.40;;;;;;;;;;4990990;28;20037;-66
2023/01/20 06:23:53;;;;;;;14.45;2.30;;;;;;;;;;5012419;28;20068;-66
2023/01/20 06:26:19;;;;;;;14.73;2.30;;;;;;;;;;4988655;28;20610;-65
2023/01/20 06:28:45;;;;;;;;;;;;;;;;;;4994814;28;20482;-66
2023/01/20 06:31:13;;;;;;;13.18;2.40;;;;;;;;;;4994386;28;19909;-66
2023/01/20 06:33:39;;;;;;;14.13;2.65;;;;;;;;;;5011674;28;20036;-65
2023/01/20 06:36:05;;;;;;;;;;;;;;;;;;5011730;28;20225;-66
2023/01/20 06:38:32;;;;;;;15.73;2.40;;;;;;;;;;5008186;28;19913;-66
2023/01/20 06:41:06;;;;;;;11.30;2.10;;;;;;;;;;5011582;28;20167;-65
2023/01/20 06:43:33;;;;;;;15.52;2.72;;;;;;;;;;5006587;28;20735;-66
2023/01/20 06:46:06;;;;;;;14.85;2.53;;;;;;;;;;5012281;28;20029;-66
2023/01/20 06:48:33;;;;;;;13.27;2.58;;;;;;;;;;5007680;28;20437;-67
2023/01/20 06:50:59;;;;;;;;;;;;;;;;;;5009923;28;20032;-66
2023/01/20 06:53:25;;;;;;;14.05;2.05;;;;;;;;;;5005190;28;19916;-66
2023/01/20 06:55:55;;;;;;;12.93;2.63;;;;;;;;;;5009866;28;20115;-66
2023/01/20 06:58:23;;;;;;;14.77;2.65;;;;;;;;;;5006961;28;20349;-66
2023/01/20 07:00:50;;;;;;;13.35;3.58;;;;;;;;;;5012291;28;20037;-66
2023/01/20 07:03:16;;;;;;;16.65;6.50;;;;;;;;;;5007316;28;20497;-67
2023/01/20 07:05:42;;;;;;;16.17;4.40;;;;;;;;;;5010945;28;20049;-67
2023/01/20 07:08:08;;;;;;;17.95;4.18;;;;;;;;;;5012284;28;20029;-66
2023/01/20 07:10:35;;;;;;;16.48;3.60;;;;;;;;;;5006561;28;20378;-66
2023/01/20 07:13:01;;;;;;;;;;;;;;;;;;4996495;28;20427;-66
2023/01/20 07:15:27;;;;;;;15.93;3.90;;;;;;;;;;5006049;28;19913;-66
2023/01/20 07:17:53;;;;;;;14.55;3.90;;;;;;;;;;5012124;28;20166;-66
2023/01/20 07:20:19;;;;;;;15.25;3.55;;;;;;;;;;5007758;28;20120;-67
2023/01/20 07:22:45;;;;;;;16.23;4.38;;;;;;;;;;4998451;28;20033;-66
2023/01/20 07:25:11;;;;;;;14.80;4.22;;;;;;;;;;4994440;28;20048;-68
2023/01/20 07:27:37;;;;;;;20.25;4.63;;;;;;;;;;5008424;28;20577;-67
2023/01/20 07:30:04;;;;;;;15.75;3.63;;;;;;;;;;5013002;28;20028;-67
2023/01/20 07:32:30;;;;;;;15.30;3.42;;;;;;;;;;5005969;28;20471;-67
2023/01/20 07:34:56;;;;;;;20.85;4.15;;;;;;;;;;5009712;28;20037;-65
2023/01/20 07:37:22;;;;;;;20.58;4.32;;;;;;;;;;5005260;28;20253;-67
2023/01/20 07:39:48;;;;;;;16.00;3.80;;;;;;;;;;5009188;28;20486;-66
2023/01/20 07:42:15;;;;;;;19.60;3.95;;;;;;;;;;4988712;28;20569;-66
2023/01/20 07:44:41;;;;;;;14.88;3.40;;;;;;;;;;5008760;28;20039;-67
2023/01/20 07:47:07;;;;;;;17.08;3.63;;;;;;;;;;5010477;28;20530;-65
2023/01/20 07:49:33;;;;;;;17.48;3.38;;;;;;;;;;5007742;28;20033;-67
2023/01/20 07:51:59;;;;;;;16.80;4.28;;;;;;;;;;5005419;28;20296;-67
2023/01/20 07:54:25;;;;;;;17.00;3.90;;;;;;;;;;5007054;28;20033;-66
2023/01/20 07:56:51;;;;;;;20.40;3.92;;;;;;;;;;5008951;28;20464;-66
2023/01/20 07:59:17;;;;;;;18.80;3.63;;;;;;;;;;5002905;28;20807;-65
2023/01/20 08:01:44;;;;;;;17.30;4.13;;;;;;;;;;5007289;28;20466;-66
2023/01/20 08:04:11;;;;;;;16.23;3.25;;;;;;;;;;4993099;28;20498;-65
2023/01/20 08:06:38;;;;;;;17.02;4.15;;;;;;;;;;5006953;28;21148;-66
2023/01/20 08:09:04;;;;;;;22.90;4.43;;;;;;;;;;5013311;28;20104;-66
2023/01/20 08:11:33;;;;;;;17.67;4.05;;;;;;;;;;5009125;28;20029;-66
2023/01/20 08:13:59;;;;;;;21.35;4.43;;;;;;;;;;4997416;28;20064;-66
2023/01/20 08:16:25;;;;;;;19.23;3.58;;;;;;;;;;5014447;28;20063;-65
2023/01/20 08:18:53;;;;;;;19.92;4.15;;;;;;;;;;5015881;28;20029;-65
2023/01/20 08:21:23;;;;;;;21.38;4.22;;;;;;;;;;5009363;28;20123;-67
2023/01/20 08:23:50;;;;;;;18.70;3.95;;;;;;;;;;5011439;28;20029;-65
2023/01/20 08:26:16;;;;;;;21.98;4.43;;;;;;;;;;4997041;28;20044;-67
2023/01/20 08:28:42;;;;;;;17.83;4.03;;;;;;;;;;5012263;28;20029;-67
2023/01/20 08:31:09;;;;;;;16.42;4.07;;;;;;;;;;5012561;28;20426;-65
2023/01/20 08:33:36;;;;;;;22.48;5.00;;;;;;;;;;5009388;28;20029;-67
2023/01/20 08:36:09;;;;;;;22.50;4.72;;;;;;;;;;5012482;28;20044;-65
2023/01/20 08:38:36;;;;;;;21.45;4.57;;;;;;;;;;5009426;28;20037;-67
2023/01/20 08:41:02;;;;;;;;;;;;;;;;;;5013508;28;20597;-67
2023/01/20 08:43:28;;;;;;;20.30;4.78;;;;;;;;;;5004632;28;19969;-67
2023/01/20 08:45:58;;;;;;;23.92;5.28;;;;;;;;;;4994080;28;20021;-67
2023/01/20 08:48:24;;;;;;;19.00;5.00;;;;;;;;;;4995890;28;20507;-67
2023/01/20 08:50:50;;;;;;;24.88;6.55;;;;;;;;;;5014219;28;20052;-67
2023/01/20 08:53:16;;;;;;;24.52;5.95;;;;;;;;;;5010572;28;20033;-66
2023/01/20 08:55:43;;;;;;;22.65;6.75;;;;;;;;;;5011602;28;20051;-67
2023/01/20 08:58:09;;;;;;;22.73;5.03;;;;;;;;;;5013042;28;20087;-67
2023/01/20 09:00:35;;;;;;;19.63;5.18;;;;;;;;;;5009661;28;20137;-66
2023/01/20 09:03:01;;;;;;;19.35;4.93;;;;;;;;;;5012642;28;20056;-66
2023/01/20 09:05:27;;;;;;;20.85;5.22;;;;;;;;;;5005790;28;20471;-68
2023/01/20 09:07:53;;;;;;;21.85;4.70;;;;;;;;;;5008808;28;20040;-67
2023/01/20 09:10:19;;;;;;;22.20;5.28;;;;;;;;;;5006258;28;20044;-67
2023/01/20 09:12:46;;;;;;;21.40;4.22;;;;;;;;;;5013886;28;20025;-66
2023/01/20 09:15:12;;;;;;;17.95;4.75;;;;;;;;;;4992338;28;20506;-66
2023/01/20 09:17:38;;;;;;;17.55;4.38;;;;;;;;;;5009309;28;20040;-66
2023/01/20 09:20:05;;;;;;;17.15;4.18;;;;;;;;;;5010586;28;20029;-66
2023/01/20 09:22:31;;;;;;;19.42;4.65;;;;;;;;;;5007995;28;20041;-66
2023/01/20 09:24:57;;;;;;;17.98;5.15;;;;;;;;;;5009973;28;20136;-66
2023/01/20 09:27:24;;;;;;;23.98;6.03;;;;;;;;;;4990555;28;20098;-67
2023/01/20 09:29:50;;;;;;;20.23;5.28;;;;;;;;;;5010155;28;20017;-65
2023/01/20 09:32:16;;;;;;;28.60;6.47;;;;;;;;;;5005081;28;20100;-65
2023/01/20 09:34:42;;;;;;;25.65;7.03;;;;;;;;;;5011940;28;20140;-66
2023/01/20 09:45:32;;;;;;;21.67;5.43;;;;;;;;;;5008505;28;20501;-66
2023/01/20 09:53:48;;;;;;;20.40;5.93;;;;;;;;;;5006718;28;20052;-66
2023/01/20 09:56:17;;;;;;;16.75;5.20;;;;;;;;;;5008113;28;20273;-66
2023/01/20 09:58:49;;;;;;;20.60;5.45;;;;;;;;;;5007345;28;20124;-66
2023/01/20 10:01:19;;;;;;;20.02;5.20;;;;;;;;;;5006312;28;20030;-68
2023/01/20 10:03:46;;;;;;;14.70;4.25;;;;;;;;;;5012189;28;20051;-67
2023/01/20 10:06:34;;;;;;;13.20;4.00;;;;;;;;;;5009369;28;20427;-66
2023/01/20 10:09:05;;;;;;;21.42;7.57;;;;;;;;;;4995825;28;20068;-66
2023/01/20 10:11:34;;;;;;;20.58;6.18;;;;;;;;;;5005803;28;20527;-66
2023/01/20 10:14:16;;;;;;;16.05;4.43;;;;;;;;;;5012361;28;20116;-66
2023/01/20 10:16:51;;;;;;;14.25;4.60;;;;;;;;;;5010650;28;20032;-66
2023/01/20 10:19:25;;;;;;;19.92;5.80;;;;;;;;;;5008551;28;20393;-66
2023/01/20 10:22:02;;;;;;;17.88;4.68;;;;;;;;;;4994549;28;20025;-66
2023/01/20 10:24:30;;;;;;;21.60;5.22;;;;;;;;;;4994397;28;20037;-66
2023/01/20 10:27:00;;;;;;;16.73;4.60;;;;;;;;;;5009698;28;20916;-66
2023/01/20 10:29:38;;;;;;;18.92;4.72;;;;;;;;;;5006484;28;20190;-66
2023/01/20 10:32:21;;;;;;;19.38;4.78;;;;;;;;;;4994658;28;20025;-66
2023/01/20 10:34:50;;;;;;;15.95;3.95;;;;;;;;;;5013486;28;20041;-66
2023/01/20 10:37:16;;;;;;;11.45;3.17;;;;;;;;;;5010217;28;20040;-66
2023/01/20 10:39:54;;;;;;;12.45;3.10;;;;;;;;;;5005853;28;20492;-66
2023/01/20 10:42:20;;;;;;;24.83;3.85;;;;;;;;;;5005322;28;20313;-66
2023/01/20 10:44:47;;;;;;;15.85;3.17;;;;;;;;;;5011091;28;20111;-66
2023/01/20 10:47:34;;;;;;;13.02;2.83;;;;;;;;;;5010089;28;20423;-66
2023/01/20 10:50:00;;;;;;;14.07;2.75;;;;;;;;;;5011496;28;20053;-66
2023/01/20 10:52:26;;;;;;;;;;;;;;;;;;5007390;28;20033;-66
2023/01/20 10:55:01;;;;;;;15.82;3.20;;;;;;;;;;5010819;28;20298;-69
2023/01/20 10:57:27;;;;;;;14.52;3.78;;;;;;;;;;5003137;28;20459;-66
2023/01/20 10:59:55;;;;;;;35.50;25.02;;;;;;;;;;5007500;28;20025;-66
2023/01/20 11:02:25;;;;;;;63.53;47.25;;;;;;;;;;5007757;28;20397;-66
2023/01/20 11:04:59;;;;;;;228.18;163.88;;;;;;;;;;4994817;28;20033;-66
2023/01/20 11:07:26;;;;;;;62.92;38.13;;;;;;;;;;5007043;28;20426;-65
2023/01/20 11:09:53;;;;;;;28.45;14.65;;;;;;;;;;5009281;28;20450;-66
2023/01/20 11:12:24;;;;;;;18.85;6.68;;;;;;;;;;5005791;28;20435;-66
2023/01/20 11:14:51;;;;;;;17.17;4.70;;;;;;;;;;5007255;28;20045;-67
2023/01/20 11:17:21;;;;;;;15.45;3.78;;;;;;;;;;5009094;28;20234;-66
2023/01/20 11:19:57;;;;;;;19.65;5.40;;;;;;;;;;5007020;28;20272;-67
2023/01/20 11:22:27;;;;;;;17.55;4.35;;;;;;;;;;5005637;28;20037;-67
2023/01/20 11:24:55;;;;;;;19.10;5.05;;;;;;;;;;5007624;28;20031;-67
2023/01/20 11:27:23;;;;;;;19.25;4.15;;;;;;;;;;5003313;28;20025;-66
2023/01/20 11:29:52;;;;;;;16.38;4.45;;;;;;;;;;5006683;28;20143;-67
2023/01/20 11:32:29;;;;;;;15.85;5.15;;;;;;;;;;5005302;28;20218;-66
2023/01/20 11:34:56;;;;;;;17.55;4.13;;;;;;;;;;5006549;28;20593;-66
2023/01/20 11:37:24;;;;;;;21.42;7.28;;;;;;;;;;5005350;28;20111;-66
2023/01/20 11:39:57;;;;;;;24.15;8.68;;;;;;;;;;5006750;28;21059;-66
2023/01/20 11:42:30;;;;;;;24.55;11.70;;;;;;;;;;5007462;28;20534;-66
2023/01/20 11:45:00;;;;;;;29.77;13.73;;;;;;;;;;5010885;28;20031;-66
2023/01/20 11:47:31;;;;;;;24.98;10.90;;;;;;;;;;4994000;28;20036;-67
2023/01/20 11:50:04;;;;;;;22.98;10.75;;;;;;;;;;5014622;28;20566;-66
2023/01/20 11:52:30;;;;;;;20.15;7.22;;;;;;;;;;5012959;28;20080;-66
2023/01/20 11:55:14;;;;;;;23.25;12.32;;;;;;;;;;5017129;28;20025;-67
2023/01/20 11:57:43;;;;;;;27.83;16.52;;;;;;;;;;4998654;28;21032;-66
2023/01/20 12:00:30;;;;;;;23.20;11.32;;;;;;;;;;5014706;28;20312;-66
2023/01/20 12:03:19;;;;;;;39.65;27.50;;;;;;;;;;4983358;28;20490;-66
2023/01/20 12:05:49;;;;;;;24.95;12.05;;;;;;;;;;4989670;28;20056;-68
2023/01/20 12:08:40;;;;;;;50.53;34.72;;;;;;;;;;5012196;28;20028;-66
2023/01/20 12:11:08;;;;;;;42.92;26.15;;;;;;;;;;5012000;28;20135;-65
2023/01/20 12:16:34;;;;;;;22.15;10.73;;;;;;;;;;5003993;28;20051;-66
2023/01/20 12:19:04;;;;;;;46.72;27.95;;;;;;;;;;5010135;28;20025;-66
2023/01/20 12:21:39;;;;;;;29.05;13.35;;;;;;;;;;4994451;28;20028;-66
2023/01/20 12:24:14;;;;;;;17.53;7.57;;;;;;;;;;4998604;28;20046;-68
2023/01/20 12:26:41;;;;;;;40.43;28.03;;;;;;;;;;5012277;28;20266;-67
2023/01/20 12:29:16;;;;;;;23.10;12.48;;;;;;;;;;5011688;28;20367;-67
2023/01/20 12:31:47;;;;;;;16.77;6.80;;;;;;;;;;5008668;28;20036;-68
2023/01/20 12:34:29;;;;;;;15.80;4.72;;;;;;;;;;5013707;28;20021;-67
2023/01/20 12:36:55;;;;;;;14.02;4.93;;;;;;;;;;4996856;28;20333;-67
2023/01/20 12:39:40;;;;;;;12.85;4.28;;;;;;;;;;4992055;28;20097;-68
2023/01/20 12:42:09;;;;;;;15.30;4.35;;;;;;;;;;5008531;28;20030;-66
2023/01/20 12:44:42;;;;;;;14.65;3.95;;;;;;;;;;5009600;28;20025;-68
2023/01/20 12:47:26;;;;;;;13.63;3.65;;;;;;;;;;5011734;28;20484;-68
2023/01/20 12:49:56;;;;;;;14.25;4.07;;;;;;;;;;5014262;28;20639;-67
2023/01/20 12:52:30;;;;;;;15.20;3.53;;;;;;;;;;4989774;28;20136;-66
2023/01/20 12:55:02;;;;;;;13.73;3.88;;;;;;;;;;5011096;28;20026;-68
2023/01/20 12:57:42;;;;;;;16.33;4.03;;;;;;;;;;5011388;28;20033;-67
2023/01/20 13:00:11;;;;;;;12.02;4.03;;;;;;;;;;4998491;28;20554;-67
2023/01/20 13:02:56;;;;;;;14.25;3.90;;;;;;;;;;5006814;28;20043;-67
2023/01/20 13:05:25;;;;;;;17.48;3.95;;;;;;;;;;5006889;28;20049;-66
2023/01/20 13:08:06;;;;;;;14.15;3.47;;;;;;;;;;5012678;28;20033;-67
2023/01/20 13:10:46;;;;;;;15.93;3.70;;;;;;;;;;5002901;28;20266;-68
2023/01/20 13:13:15;;;;;;;11.52;3.28;;;;;;;;;;5010847;28;20028;-68
2023/01/20 13:15:43;;;;;;;17.27;4.72;;;;;;;;;;5012299;28;20042;-67
2023/01/20 13:18:09;;;;;;;15.88;4.60;;;;;;;;;;5010434;28;20124;-69
2023/01/20 13:20:35;;;;;;;;;;;;;;;;;;5011877;28;20028;-68
2023/01/20 13:23:03;;;;;;;12.98;4.07;;;;;;;;;;5015085;28;19956;-66
2023/01/20 13:25:30;;;;;;;15.45;4.15;;;;;;;;;;5007200;28;20041;-68
2023/01/20 13:27:56;;;;;;;16.30;5.03;;;;;;;;;;4990875;28;20038;-67
2023/01/20 13:30:56;;;;;;;17.48;7.80;;;;;;;;;;5010374;28;20029;-65
2023/01/20 13:33:33;;;;;;;21.38;10.50;;;;;;;;;;4912754;28;20621;-66
2023/01/20 13:36:00;;;;;;;19.23;8.02;;;;;;;;;;4933503;28;20054;-68
2023/01/20 13:38:29;;;;;;;15.57;5.88;;;;;;;;;;4930043;28;20112;-68
2023/01/20 13:41:02;;;;;;;15.38;5.38;;;;;;;;;;4932797;28;20451;-67
2023/01/20 13:43:34;;;;;;;17.67;5.00;;;;;;;;;;4929483;28;20630;-67
2023/01/20 13:46:03;;;;;;;18.17;4.90;;;;;;;;;;4930942;28;20102;-66
2023/01/20 13:48:33;;;;;;;18.08;6.15;;;;;;;;;;4930681;28;21003;-67
2023/01/20 13:51:18;;;;;;;17.70;5.38;;;;;;;;;;4932933;28;20058;-66
2023/01/20 13:53:46;;;;;;;15.07;4.32;;;;;;;;;;4929863;28;20070;-67
2023/01/20 13:56:26;;;;;;;17.00;4.85;;;;;;;;;;4931194;28;20050;-67
2023/01/20 13:58:52;;;;;;;17.15;4.35;;;;;;;;;;4930185;28;20110;-68
2023/01/20 14:01:18;;;;;;;18.70;4.80;;;;;;;;;;4928260;28;20584;-66
2023/01/20 14:04:00;;;;;;;16.85;4.70;;;;;;;;;;4931186;28;20053;-66
2023/01/20 14:06:27;;;;;;;20.55;5.32;;;;;;;;;;4929213;28;20541;-68
2023/01/20 14:08:54;;;;;;;21.48;5.50;;;;;;;;;;4948177;28;20121;-67
2023/01/20 14:11:24;;;;;;;18.73;5.07;;;;;;;;;;4968108;28;20121;-67
2023/01/20 14:13:51;;;;;;;25.45;5.43;;;;;;;;;;4970088;28;20034;-67
2023/01/20 14:16:18;;;;;;;18.30;6.25;;;;;;;;;;4967442;28;20041;-67
2023/01/20 14:18:45;;;;;;;16.38;5.13;;;;;;;;;;4971763;28;20029;-67
2023/01/20 14:21:22;;;;;;;15.52;5.43;;;;;;;;;;4969858;28;20096;-67
2023/01/20 14:23:49;;;;;;;28.33;7.63;;;;;;;;;;4973180;28;20041;-68
2023/01/20 14:26:20;;;;;;;19.27;6.40;;;;;;;;;;4980213;28;21290;-66
2023/01/20 14:28:52;;;;;;;24.42;6.82;;;;;;;;;;4974314;28;20633;-66
2023/01/20 14:31:34;;;;;;;14.95;4.60;;;;;;;;;;4971537;28;22157;-68
2023/01/20 14:34:02;;;;;;;19.25;5.55;;;;;;;;;;4974028;28;20153;-67
2023/01/20 14:36:33;;;;;;;18.83;4.43;;;;;;;;;;4971169;28;20112;-69
2023/01/20 14:39:01;;;;;;;20.17;5.32;;;;;;;;;;4969129;28;20090;-68
2023/01/20 14:41:27;;;;;;;19.38;5.68;;;;;;;;;;4969847;28;20034;-67
2023/01/20 14:43:53;;;;;;;19.45;5.68;;;;;;;;;;4971443;28;20164;-67
2023/01/20 14:46:19;;;;;;;20.50;5.22;;;;;;;;;;4970878;28;20623;-69
2023/01/20 14:48:46;;;;;;;14.63;4.40;;;;;;;;;;4973749;28;20596;-69
2023/01/20 14:51:15;;;;;;;17.70;4.40;;;;;;;;;;4967736;28;20039;-68
2023/01/20 14:53:42;;;;;;;23.48;6.55;;;;;;;;;;4983770;28;20030;-68
2023/01/20 14:56:16;;;;;;;22.20;9.50;;;;;;;;;;4968109;28;20056;-67
2023/01/20 14:58:46;;;;;;;22.50;7.97;;;;;;;;;;4974225;28;20033;-69
2023/01/20 15:01:23;;;;;;;18.75;6.18;;;;;;;;;;4969575;28;20033;-66